createdAt,value
2019-03-15T00:00:57.764Z,100083.41
2019-03-15T00:03:36.019Z,100075.80
2019-03-15T00:06:13.371Z,100089.04
2019-03-15T00:08:49.089Z,100095.18
2019-03-15T00:11:24.694Z,100108.31
2019-03-15T00:13:59.620Z,100107.98
2019-03-15T00:16:34.667Z,100098.77
2019-03-15T00:19:09.547Z,100102.16
2019-03-15T00:21:44.406Z,100102.66
2019-03-15T00:24:19.409Z,100107.23
2019-03-15T00:26:54.257Z,100108.66
2019-03-15T00:29:29.127Z,100120.36
2019-03-15T00:32:04.713Z,100125.61
2019-03-15T00:34:39.678Z,100131.35
2019-03-15T00:37:14.450Z,100133.92
2019-03-15T00:39:49.648Z,100129.81
2019-03-15T00:42:24.405Z,100133.96
2019-03-15T00:44:59.315Z,100132.53
2019-03-15T00:47:34.286Z,100118.20
2019-03-15T00:50:10.348Z,100120.09
2019-03-15T00:52:45.210Z,100134.73
2019-03-15T00:55:20.279Z,100146.27
2019-03-15T00:57:55.070Z,100140.36
2019-03-15T01:00:30.627Z,100133.64
2019-03-15T01:03:05.497Z,100145.28
2019-03-15T01:05:40.568Z,100151.31
2019-03-15T01:08:15.359Z,100150.63
2019-03-15T01:10:50.249Z,100141.83
2019-03-15T01:13:25.092Z,100152.52
2019-03-15T01:16:00.024Z,100142.13
2019-03-15T01:18:34.969Z,100155.30
2019-03-15T01:21:09.862Z,100166.86
2019-03-15T01:23:44.642Z,100163.82
2019-03-15T01:26:19.457Z,100152.65
2019-03-15T01:28:54.297Z,100163.82
2019-03-15T01:31:29.234Z,100177.31
2019-03-15T01:34:04.097Z,100174.89
2019-03-15T01:36:39.019Z,100176.69
2019-03-15T01:39:13.783Z,100179.28
2019-03-15T01:41:49.003Z,100178.24
2019-03-15T01:44:25.803Z,100179.62
2019-03-15T01:47:00.566Z,100183.94
2019-03-15T01:49:35.494Z,100182.41
2019-03-15T01:52:10.438Z,100194.14
2019-03-15T01:54:45.295Z,100192.58
2019-03-15T01:57:20.181Z,100181.41
2019-03-15T01:59:56.005Z,100184.83
2019-03-15T02:02:30.927Z,100186.77
2019-03-15T02:05:06.255Z,100193.39
2019-03-15T02:07:41.251Z,100189.59
2019-03-15T02:10:16.319Z,100188.18
2019-03-15T02:12:51.181Z,100189.11
2019-03-15T02:15:26.073Z,100196.75
2019-03-15T02:18:00.939Z,100198.35
2019-03-15T02:20:35.813Z,100202.30
2019-03-15T02:23:10.691Z,100200.22
2019-03-15T02:25:45.474Z,100199.70
2019-03-15T02:28:21.428Z,100201.14
2019-03-15T02:30:56.326Z,100187.04
2019-03-15T02:33:31.498Z,100190.50
2019-03-15T02:36:07.721Z,100173.72
2019-03-15T02:38:42.617Z,100174.42
2019-03-15T02:41:17.499Z,100178.59
2019-03-15T02:43:52.417Z,100191.62
2019-03-15T02:46:27.995Z,100188.23
2019-03-15T02:49:03.789Z,100186.93
2019-03-15T02:51:38.674Z,100178.33
2019-03-15T02:54:13.635Z,100169.66
2019-03-15T02:56:48.520Z,100164.45
2019-03-15T02:59:23.554Z,100172.31
2019-03-15T03:01:58.521Z,100180.09
2019-03-15T03:04:33.373Z,100177.03
2019-03-15T03:07:08.155Z,100185.41
2019-03-15T03:09:43.122Z,100177.92
2019-03-15T03:12:18.030Z,100184.62
2019-03-15T03:14:52.966Z,100183.25
2019-03-15T03:17:27.866Z,100180.19
2019-03-15T03:20:02.718Z,100173.57
2019-03-15T03:22:37.626Z,100174.88
2019-03-15T03:25:12.489Z,100161.63
2019-03-15T03:27:47.379Z,100171.64
2019-03-15T03:30:22.232Z,100179.86
2019-03-15T03:33:00.425Z,100169.04
2019-03-15T03:35:35.341Z,100159.97
2019-03-15T03:38:10.750Z,100158.10
2019-03-15T03:40:46.699Z,100164.34
2019-03-15T03:43:21.655Z,100159.63
2019-03-15T03:45:56.529Z,100162.41
2019-03-15T03:48:31.441Z,100171.41
2019-03-15T03:51:08.096Z,100177.66
2019-03-15T03:53:43.472Z,100173.13
2019-03-15T03:56:18.331Z,100168.74
2019-03-15T03:58:53.227Z,100171.42
2019-03-15T04:01:28.015Z,100159.77
2019-03-15T04:04:02.947Z,100154.89
2019-03-15T04:06:38.041Z,100152.25
2019-03-15T04:09:12.933Z,100146.53
2019-03-15T04:11:55.428Z,100154.89
2019-03-15T04:14:24.281Z,100148.13
2019-03-15T04:16:59.183Z,100155.13
2019-03-15T04:19:36.511Z,100145.27
2019-03-15T04:22:14.865Z,100161.00
2019-03-15T04:24:50.631Z,100158.47
2019-03-15T04:27:27.994Z,100151.39
2019-03-15T04:30:03.881Z,100154.27
2019-03-15T04:32:39.610Z,100166.39
2019-03-15T04:35:14.552Z,100164.16
2019-03-15T04:37:50.307Z,100155.33
2019-03-15T04:40:25.113Z,100165.27
2019-03-15T04:43:01.108Z,100155.36
2019-03-15T04:45:36.801Z,100149.37
2019-03-15T04:48:11.691Z,100151.27
2019-03-15T04:50:46.603Z,100157.74
2019-03-15T04:53:21.500Z,100151.69
2019-03-15T04:55:56.556Z,100147.84
2019-03-15T04:58:32.429Z,100146.33
2019-03-15T05:01:07.356Z,100145.52
2019-03-15T05:03:42.288Z,100149.61
2019-03-15T05:06:17.178Z,100153.20
2019-03-15T05:08:52.075Z,100147.47
2019-03-15T05:11:27.037Z,100144.63
2019-03-15T05:14:02.126Z,100146.68
2019-03-15T05:16:37.032Z,100139.19
2019-03-15T05:19:11.979Z,100137.59
2019-03-15T05:21:47.007Z,100140.45
2019-03-15T05:24:21.909Z,100144.11
2019-03-15T05:26:56.751Z,100126.52
2019-03-15T05:29:32.511Z,100116.52
2019-03-15T05:32:07.503Z,100117.63
2019-03-15T05:34:42.543Z,100110.00
2019-03-15T05:37:17.524Z,100116.25
2019-03-15T05:39:52.499Z,100115.73
2019-03-15T05:42:27.336Z,100105.83
2019-03-15T05:45:02.355Z,100101.44
2019-03-15T05:47:37.323Z,100107.78
2019-03-15T05:50:12.719Z,100107.53
2019-03-15T05:52:47.686Z,100112.70
2019-03-15T05:55:24.311Z,100111.53
2019-03-15T05:58:01.675Z,100109.45
2019-03-15T06:00:36.672Z,100107.06
2019-03-15T06:03:12.679Z,100111.11
2019-03-15T06:05:47.777Z,100104.34
2019-03-15T06:08:22.761Z,100095.64
2019-03-15T06:10:57.868Z,100100.72
2019-03-15T06:13:33.793Z,100105.84
2019-03-15T06:16:08.658Z,100095.41
2019-03-15T06:18:43.629Z,100095.13
2019-03-15T06:21:18.546Z,100100.10
2019-03-15T06:23:53.337Z,100099.36
2019-03-15T06:26:28.231Z,100092.41
2019-03-15T06:29:03.162Z,100080.77
2019-03-15T06:31:38.073Z,100086.48
2019-03-15T06:34:12.934Z,100074.61
2019-03-15T06:36:48.653Z,100070.61
2019-03-15T06:39:23.601Z,100068.32
2019-03-15T06:41:58.482Z,100072.17
2019-03-15T06:44:33.481Z,100074.52
2019-03-15T06:47:08.377Z,100073.62
2019-03-15T06:49:43.567Z,100064.48
2019-03-15T06:52:18.573Z,100064.75
2019-03-15T06:54:53.411Z,100059.30
2019-03-15T06:57:28.339Z,100044.66
2019-03-15T07:00:04.235Z,100056.09
2019-03-15T07:02:39.118Z,100056.69
2019-03-15T07:05:14.029Z,100053.53
2019-03-15T07:07:48.962Z,100048.39
2019-03-15T07:10:23.879Z,100034.35
2019-03-15T07:12:58.815Z,100030.02
2019-03-15T07:15:33.800Z,100035.30
2019-03-15T07:18:08.677Z,100035.75
2019-03-15T07:20:43.643Z,100039.36
2019-03-15T07:23:18.541Z,100029.68
2019-03-15T07:25:54.495Z,100011.64
2019-03-15T07:28:29.398Z,100018.24
2019-03-15T07:31:04.345Z,100006.87
2019-03-15T07:33:39.337Z,100005.83
2019-03-15T07:36:14.797Z,100000.80
2019-03-15T07:38:49.605Z,99988.16
2019-03-15T07:41:25.586Z,99980.11
2019-03-15T07:44:00.947Z,99981.77
2019-03-15T07:46:35.941Z,99985.09
2019-03-15T07:49:10.794Z,99974.50
2019-03-15T07:51:45.748Z,99977.08
2019-03-15T07:54:20.761Z,99972.77
2019-03-15T07:56:55.599Z,99975.55
2019-03-15T07:59:30.557Z,99984.31
2019-03-15T08:02:05.317Z,99974.94
2019-03-15T08:04:40.227Z,99968.44
2019-03-15T08:07:15.142Z,99975.77
2019-03-15T08:09:50.857Z,99975.80
2019-03-15T08:12:26.440Z,99972.62
2019-03-15T08:15:01.402Z,99967.94
2019-03-15T08:17:36.336Z,99969.06
2019-03-15T08:20:12.641Z,99969.98
2019-03-15T08:22:47.678Z,99963.73
2019-03-15T08:25:23.726Z,99944.95
2019-03-15T08:27:58.584Z,99945.75
2019-03-15T08:30:33.460Z,99947.29
2019-03-15T08:33:10.604Z,99953.59
2019-03-15T08:35:44.907Z,99938.52
2019-03-15T08:38:19.982Z,99934.98
2019-03-15T08:40:55.029Z,99920.96
2019-03-15T08:43:30.014Z,99924.11
2019-03-15T08:46:04.976Z,99928.07
2019-03-15T08:48:39.934Z,99929.43
2019-03-15T08:51:16.086Z,99923.55
2019-03-15T08:53:50.960Z,99924.73
2019-03-15T08:56:28.281Z,99918.88
2019-03-15T08:59:03.823Z,99917.65
2019-03-15T09:01:39.311Z,99910.47
2019-03-15T09:04:14.300Z,99897.80
2019-03-15T09:06:49.503Z,99895.69
2019-03-15T09:09:24.554Z,99899.16
2019-03-15T09:11:59.490Z,99897.21
2019-03-15T09:14:34.324Z,99889.70
2019-03-15T09:17:10.366Z,99878.17
2019-03-15T09:19:47.208Z,99861.80
2019-03-15T09:22:22.088Z,99846.45
2019-03-15T09:24:56.990Z,99847.13
2019-03-15T09:27:31.876Z,99852.80
2019-03-15T09:30:07.294Z,99839.68
2019-03-15T09:32:42.184Z,99845.59
2019-03-15T09:35:17.050Z,99854.64
2019-03-15T09:37:53.065Z,99844.96
2019-03-15T09:40:27.843Z,99832.09
2019-03-15T09:43:03.810Z,99818.78
2019-03-15T09:45:42.502Z,99807.82
2019-03-15T09:48:17.470Z,99808.58
2019-03-15T09:50:52.540Z,99804.88
2019-03-15T09:53:27.442Z,99795.78
2019-03-15T09:56:02.431Z,99780.34
2019-03-15T09:58:38.376Z,99773.61
2019-03-15T10:01:13.839Z,99773.58
2019-03-15T10:03:49.798Z,99763.86
2019-03-15T10:06:25.068Z,99754.52
2019-03-15T10:09:00.017Z,99754.72
2019-03-15T10:11:36.345Z,99740.93
2019-03-15T10:14:11.240Z,99735.99
2019-03-15T10:16:46.158Z,99721.83
2019-03-15T10:19:21.030Z,99726.77
2019-03-15T10:21:56.110Z,99709.83
2019-03-15T10:24:31.082Z,99696.78
2019-03-15T10:27:06.083Z,99688.45
2019-03-15T10:29:41.034Z,99692.12
2019-03-15T10:32:16.003Z,99687.22
2019-03-15T10:34:52.401Z,99697.10
2019-03-15T10:37:27.411Z,99698.19
2019-03-15T10:40:02.333Z,99687.47
2019-03-15T10:42:37.318Z,99675.28
2019-03-15T10:45:12.622Z,99670.83
2019-03-15T10:47:47.802Z,99658.58
2019-03-15T10:50:22.779Z,99674.53
2019-03-15T10:52:57.716Z,99659.41
2019-03-15T10:55:32.655Z,99654.76
2019-03-15T10:58:07.722Z,99651.84
2019-03-15T11:00:42.942Z,99656.59
2019-03-15T11:03:17.900Z,99664.48
2019-03-15T11:05:52.813Z,99656.91
2019-03-15T11:08:27.792Z,99656.17
2019-03-15T11:11:02.714Z,99659.06
2019-03-15T11:13:37.764Z,99653.84
2019-03-15T11:16:13.622Z,99653.62
2019-03-15T11:18:49.525Z,99648.38
2019-03-15T11:21:24.528Z,99640.83
2019-03-15T11:23:59.442Z,99644.77
2019-03-15T11:26:34.686Z,99639.78
2019-03-15T11:29:10.166Z,99641.13
2019-03-15T11:31:45.146Z,99636.39
2019-03-15T11:34:20.185Z,99636.92
2019-03-15T11:36:58.583Z,99628.27
2019-03-15T11:39:31.848Z,99629.58
2019-03-15T11:42:07.534Z,99637.45
2019-03-15T11:44:42.459Z,99623.55
2019-03-15T11:47:17.386Z,99622.95
2019-03-15T11:49:52.495Z,99611.34
2019-03-15T11:52:27.684Z,99612.87
2019-03-15T11:55:02.756Z,99606.33
2019-03-15T11:57:37.832Z,99595.83
2019-03-15T12:00:15.412Z,99581.94
2019-03-15T12:02:53.022Z,99589.47
2019-03-15T12:05:30.511Z,99597.03
2019-03-15T12:08:07.928Z,99609.02
2019-03-15T12:10:45.320Z,99609.18
2019-03-15T12:13:22.971Z,99600.11
2019-03-15T12:15:59.058Z,99606.73
2019-03-15T12:18:34.653Z,99606.77
2019-03-15T12:21:09.982Z,99607.84
2019-03-15T12:23:45.727Z,99631.32
2019-03-15T12:26:20.835Z,99608.86
2019-03-15T12:28:55.760Z,99611.27
2019-03-15T12:31:30.756Z,99634.09
2019-03-15T12:34:05.542Z,99610.84
2019-03-15T12:36:40.536Z,99629.52
2019-03-15T12:39:15.342Z,99628.75
2019-03-15T12:41:50.594Z,99622.95
2019-03-15T12:44:25.618Z,99624.47
2019-03-15T12:47:00.435Z,99625.23
2019-03-15T12:49:35.466Z,99627.33
2019-03-15T12:52:10.352Z,99619.33
2019-03-15T12:54:45.674Z,99617.20
2019-03-15T12:57:20.594Z,99609.50
2019-03-15T12:59:57.140Z,99611.02
2019-03-15T13:02:32.994Z,99619.70
2019-03-15T13:05:08.124Z,99617.42
2019-03-15T13:07:43.015Z,99635.73
2019-03-15T13:10:18.077Z,99635.71
2019-03-15T13:12:53.060Z,99614.52
2019-03-15T13:15:27.976Z,99621.22
2019-03-15T13:18:02.996Z,99644.03
2019-03-15T13:20:37.954Z,99631.64
2019-03-15T13:23:13.200Z,99638.20
2019-03-15T13:25:48.230Z,99646.72
2019-03-15T13:28:23.517Z,99649.81
2019-03-15T13:30:58.319Z,99668.63
2019-03-15T13:33:34.364Z,99658.92
2019-03-15T13:36:09.917Z,99657.59
2019-03-15T13:38:44.826Z,99663.44
2019-03-15T13:41:19.673Z,99661.86
2019-03-15T13:43:54.603Z,99656.92
2019-03-15T13:46:29.588Z,99660.98
2019-03-15T13:49:06.087Z,99665.91
2019-03-15T13:51:40.990Z,99676.48
2019-03-15T13:54:15.919Z,99675.92
2019-03-15T13:56:50.866Z,99693.23
2019-03-15T13:59:25.786Z,99688.57
2019-03-15T14:02:00.669Z,99688.22
2019-03-15T14:04:37.151Z,99688.70
2019-03-15T14:07:12.035Z,99726.59
2019-03-15T14:09:46.960Z,99704.56
2019-03-15T14:12:21.876Z,99698.53
2019-03-15T14:14:56.908Z,99725.05
2019-03-15T14:17:32.634Z,99707.16
2019-03-15T14:20:08.464Z,99695.31
2019-03-15T14:22:43.397Z,99709.59
2019-03-15T14:25:19.762Z,99719.87
2019-03-15T14:27:55.174Z,99733.48
2019-03-15T14:30:30.985Z,99716.74
2019-03-15T14:33:06.060Z,99720.66
2019-03-15T14:35:41.846Z,99725.84
2019-03-15T14:38:16.840Z,99813.24
2019-03-15T14:40:51.893Z,99753.81
2019-03-15T14:43:27.027Z,99735.88
2019-03-15T14:46:04.116Z,99766.72
2019-03-15T14:48:39.991Z,99767.77
2019-03-15T14:51:14.852Z,99760.55
2019-03-15T14:53:49.738Z,99802.43
2019-03-15T14:56:25.058Z,99771.52
2019-03-15T14:58:59.966Z,99774.53
2019-03-15T15:01:39.004Z,99783.56
2019-03-15T15:04:16.191Z,99771.16
2019-03-15T15:06:50.656Z,99756.20
2019-03-15T15:12:03.288Z,99778.80
2019-03-15T15:14:38.176Z,99792.63
2019-03-15T15:17:13.060Z,99775.28
2019-03-15T15:19:48.135Z,99797.01
2019-03-15T15:22:23.110Z,99789.63
2019-03-15T15:24:58.137Z,99777.86
2019-03-15T15:27:33.224Z,99779.42
2019-03-15T15:30:09.853Z,99775.47
2019-03-15T15:32:44.909Z,99770.71
2019-03-15T15:35:20.314Z,99791.70
2019-03-15T15:37:55.079Z,99768.36
2019-03-15T15:40:29.993Z,99774.13
2019-03-15T15:43:06.026Z,99770.95
2019-03-15T15:45:41.425Z,99773.72
2019-03-15T15:48:16.465Z,99771.38
2019-03-15T15:50:51.571Z,99781.08
2019-03-15T15:53:26.546Z,99826.44
2019-03-15T15:56:01.888Z,99800.98
2019-03-15T15:58:37.000Z,99812.52
2019-03-15T16:01:11.972Z,99813.88
2019-03-15T16:03:46.982Z,99831.91
2019-03-15T16:06:22.185Z,99804.96
2019-03-15T16:08:57.344Z,99815.48
2019-03-15T16:11:34.468Z,99825.87
2019-03-15T16:14:09.336Z,99830.36
2019-03-15T16:16:44.460Z,99817.28
2019-03-15T16:19:20.273Z,99827.64
2019-03-15T16:21:55.379Z,99833.28
2019-03-15T16:24:30.181Z,99850.64
2019-03-15T16:27:05.176Z,99851.42
2019-03-15T16:29:40.239Z,99854.22
2019-03-15T16:32:18.105Z,99853.24
2019-03-15T16:34:53.258Z,99871.41
2019-03-15T16:37:29.174Z,99850.40
2019-03-15T16:40:04.893Z,99859.34
2019-03-15T16:42:40.467Z,99868.52
2019-03-15T16:45:16.733Z,99877.45
2019-03-15T16:47:51.725Z,99895.84
2019-03-15T16:50:27.200Z,99881.39
2019-03-15T16:53:03.057Z,99899.52
2019-03-15T16:55:41.537Z,99893.74
2019-03-15T16:58:17.663Z,99877.75
2019-03-15T17:00:56.431Z,99891.39
2019-03-15T17:03:34.101Z,99909.72
2019-03-15T17:06:11.141Z,99912.56
2019-03-15T17:08:46.409Z,99926.20
2019-03-15T17:11:21.465Z,99935.37
2019-03-15T17:13:57.303Z,99912.28
2019-03-15T17:16:32.493Z,99963.37
2019-03-15T17:19:10.014Z,99940.28
2019-03-15T17:21:51.149Z,99949.19
2019-03-15T17:24:26.203Z,99954.64
2019-03-15T17:27:01.540Z,99948.09
2019-03-15T17:29:36.810Z,99960.64
2019-03-15T17:32:13.141Z,99967.66
2019-03-15T17:34:52.036Z,99965.54
2019-03-15T17:37:27.340Z,99973.89
2019-03-15T17:40:02.615Z,99985.93
2019-03-15T17:42:38.412Z,99974.39
2019-03-15T17:45:14.323Z,99984.30
2019-03-15T17:47:52.113Z,99990.60
2019-03-15T17:50:27.476Z,100003.44
2019-03-15T17:53:04.150Z,99999.70
2019-03-15T17:55:44.252Z,99999.41
2019-03-15T17:58:20.678Z,100004.89
2019-03-15T18:01:04.053Z,100011.36
2019-03-15T18:03:39.355Z,100025.83
2019-03-15T18:06:15.331Z,100024.23
2019-03-15T18:08:52.511Z,100023.17
2019-03-15T18:11:37.584Z,100038.30
2019-03-15T18:14:19.618Z,100040.14
2019-03-15T18:16:58.229Z,100061.08
2019-03-15T18:19:53.035Z,100060.29
2019-03-15T18:22:28.085Z,100070.92
2019-03-15T18:25:06.053Z,100072.45
2019-03-15T18:27:41.080Z,100072.75
2019-03-15T18:30:20.228Z,100053.13
2019-03-15T18:36:32.325Z,100081.86
2019-03-15T18:39:21.254Z,100076.58
2019-03-15T18:42:00.448Z,100071.09
2019-03-15T18:44:35.411Z,100069.55
2019-03-15T18:47:10.338Z,100090.73
2019-03-15T18:50:03.152Z,100095.17
2019-03-15T18:52:54.806Z,100101.41
2019-03-15T18:55:30.195Z,100100.42
2019-03-15T18:58:18.658Z,100133.94
2019-03-15T19:00:59.412Z,100118.97
2019-03-15T19:03:38.147Z,100131.98
2019-03-15T19:06:14.148Z,100142.63
2019-03-15T19:15:35.618Z,100154.26
2019-03-15T19:18:11.408Z,100150.56
2019-03-15T19:20:46.375Z,100154.44
2019-03-15T19:23:22.590Z,100173.04
2019-03-15T19:26:42.045Z,100167.81
2019-03-15T19:29:25.094Z,100166.73
2019-03-15T19:35:46.761Z,100181.08
2019-03-15T19:45:45.580Z,100197.00
2019-03-15T19:48:57.575Z,100202.94
2019-03-15T19:51:45.599Z,100192.01
2019-03-15T19:57:52.568Z,100205.45
2019-03-15T20:00:28.457Z,100219.29
2019-03-15T20:06:14.591Z,100230.52
2019-03-15T20:09:08.741Z,100225.46
2019-03-15T20:11:47.298Z,100234.30
2019-03-15T20:14:38.681Z,100232.75
2019-03-15T20:17:18.593Z,100233.97
2019-03-15T20:20:16.268Z,100242.04
2019-03-15T20:26:57.122Z,100232.68
2019-03-15T20:30:05.654Z,100238.91
2019-03-15T20:32:49.565Z,100237.65
2019-03-15T20:35:56.035Z,100257.03
2019-03-15T20:49:48.626Z,100261.34
2019-03-15T20:52:24.483Z,100269.19
2019-03-15T20:55:04.007Z,100279.33
2019-03-15T20:57:39.771Z,100288.71
2019-03-15T21:00:16.532Z,100280.80
2019-03-15T21:02:51.594Z,100306.14
2019-03-15T21:19:59.737Z,100293.30
2019-03-15T21:27:53.718Z,100308.34
2019-03-15T21:34:26.355Z,100322.16
2019-03-15T21:41:44.258Z,100327.58
2019-03-15T21:44:41.602Z,100334.22
2019-03-15T21:47:16.502Z,100338.73
2019-03-15T21:58:59.947Z,100333.15
2019-03-15T22:05:24.252Z,100341.51
2019-03-15T22:11:29.395Z,100342.52
2019-03-15T22:14:30.386Z,100355.25
2019-03-15T22:29:18.182Z,100383.20
2019-03-15T22:33:18.223Z,100406.96
2019-03-15T22:47:47.531Z,100414.30
2019-03-15T22:58:55.459Z,100425.89
2019-03-15T23:02:05.790Z,100423.48
2019-03-15T23:04:41.521Z,100447.18
2019-03-15T23:07:16.391Z,100437.70
2019-03-15T23:16:03.512Z,100446.55
2019-03-15T23:21:57.221Z,100443.58
2019-03-15T23:24:44.840Z,100446.13
2019-03-15T23:30:24.239Z,100453.17
2019-03-15T23:33:18.508Z,100454.11
2019-03-15T23:36:07.526Z,100464.77
2019-03-15T23:38:58.780Z,100458.73
2019-03-15T23:47:46.864Z,100478.94
2019-03-15T23:50:21.722Z,100482.94
2019-03-15T23:53:08.400Z,100487.38
2019-03-15T23:55:44.490Z,100484.58
2019-03-15T23:58:32.622Z,100491.89
